Fontana, CA (92331)

4:17 AM PDT on August 24, 2016 (GMT -0700)
California Landings | | Change Station

Elev 1467 ft 34.13 °N, 117.46 °W | Updated 10 minutes ago

Clear
Clear
62.8 °F
Feels Like 62.8 °F
N
0.0
Wind Variable Wind from NNE

Today
High -- | Low -- °F
--% Chance of Precip.
Yesterday
High -- | Low -- °F
Precip. -- in
Pressure 29.97 in
Visibility 10.0 miles
Clouds Clear
Dew Point 57 °F
Humidity 81%
Rainfall 0.00 in
Snow Depth Not available.
6:18 AM 7:25 PM
Waning Gibbous, 58% visible
METAR KONT 241053Z 24004KT 10SM CLR 19/13 A3002 RMK AO2 SLP149 T01940128
Pressure 29.97 in
Visibility 10.0 miles
Clouds Clear
Dew Point 57 °F
Humidity 81%
Rainfall 0.00 in
Snow Depth Not available.
6:18 AM 7:25 PM
Waning Gibbous, 58% visible
METAR KONT 241053Z 24004KT 10SM CLR 19/13 A3002 RMK AO2 SLP149 T01940128

10-Day Weather Forecast

Almanac

Astronomy

Aug. 24, 2016 Rise Set
Actual Time
Civil Twilight
Nautical Twilight
Astronomical Twilight
Moon
Length of Visible Light
Length of Day
Tomorrow will be .
, % of the Moon is Illuminated

Today's Extremes

State Highs State Lows

Community

WunderPhotos

Upload Photos

1,934,565 photos uploaded!

WunderBlog® & News

Nearby

Air Quality

  Air Quality AQ Index Pollutant
Not available.

Snow Depth

Station Depth Elevation

Earthquake Activity

City Distance Mag. Time & Date
Minimum magnitude displayed is 2.5.

Coastal Water Temperatures

Place Temperature

Stations

Nearby Weather Stations

Station Location Temp. Windchill Dew Point Humidity Wind Precip. Elev Updated Type
                   

Watches & Warnings

There are currently no watches in effect.